Time;durP1;ratioP1;P1;durP2;ratioP2;P2;SDS_P1;SDS_P2;PMS_P1;PMS_P2;Temp;Humidity;BMP_temperature;BMP_pressure;BME280_temperature;BME280_humidity;BME280_pressure;Samples;Min_cycle;Max_cycle;Signal;HPM_P1;HPM_P2
2022/12/20 00:01:46;;;;;;;1.20;1.10;;;4.30;99.90;;;;;;4400055;32;20094;-76
2022/12/20 00:04:11;;;;;;;0.75;0.75;;;4.20;99.90;;;;;;4397445;32;20069;-78
2022/12/20 00:06:37;;;;;;;0.62;0.62;;;4.30;99.90;;;;;;4399177;32;20564;-76
2022/12/20 00:09:05;;;;;;;0.82;0.82;;;4.30;99.90;;;;;;4398149;32;20098;-77
2022/12/20 00:11:30;;;;;;;0.55;0.55;;;4.30;99.90;;;;;;4387000;32;20086;-76
2022/12/20 00:13:57;;;;;;;0.60;0.60;;;4.30;99.90;;;;;;4372171;32;20343;-75
2022/12/20 00:16:25;;;;;;;2.17;1.55;;;4.30;99.90;;;;;;4374031;32;20541;-75
2022/12/20 00:18:53;;;;;;;0.65;0.65;;;4.30;99.90;;;;;;4385624;32;20605;-76
2022/12/20 00:21:19;;;;;;;6.05;0.80;;;4.30;99.90;;;;;;4398015;32;20138;-76
2022/12/20 00:23:44;;;;;;;1.25;0.90;;;4.30;99.90;;;;;;4400497;32;20472;-76
2022/12/20 00:26:13;;;;;;;2.22;1.05;;;4.30;99.90;;;;;;4400700;32;20877;-78
2022/12/20 00:28:40;;;;;;;0.60;0.60;;;4.30;99.90;;;;;;4398071;32;20116;-76
2022/12/20 00:31:06;;;;;;;0.98;0.90;;;4.40;99.90;;;;;;4395831;32;20130;-76
2022/12/20 00:33:33;;;;;;;2.33;0.73;;;4.40;99.90;;;;;;4399068;32;20139;-76
2022/12/20 00:35:58;;;;;;;0.65;0.65;;;4.40;99.90;;;;;;4400088;32;20101;-76
2022/12/20 00:38:25;;;;;;;1.05;1.05;;;4.40;99.90;;;;;;4400288;32;20085;-76
2022/12/20 00:41:08;;;;;;;3.03;1.12;;;4.40;99.90;;;;;;4389533;32;20089;-75
2022/12/20 00:43:35;;;;;;;1.02;1.00;;;4.40;99.90;;;;;;4363561;32;20100;-75
2022/12/20 00:46:01;;;;;;;0.40;0.40;;;4.40;99.90;;;;;;4372674;32;20082;-76
2022/12/20 00:48:30;;;;;;;0.60;0.60;;;4.40;99.90;;;;;;4381595;32;20113;-76
2022/12/20 00:51:06;;;;;;;0.65;0.65;;;4.40;99.90;;;;;;4399673;32;20090;-76
2022/12/20 00:53:32;;;;;;;2.17;1.15;;;4.40;99.90;;;;;;4399417;32;20534;-76
2022/12/20 00:55:58;;;;;;;1.35;1.23;;;4.50;99.90;;;;;;4396839;32;20128;-77
2022/12/20 00:58:25;;;;;;;1.25;1.20;;;4.40;99.90;;;;;;4401759;32;20062;-76
2022/12/20 01:00:51;;;;;;;0.52;0.52;;;4.40;99.90;;;;;;4398266;32;20107;-77
2022/12/20 01:03:16;;;;;;;1.00;0.90;;;4.50;99.90;;;;;;4398067;32;20091;-77
2022/12/20 01:06:02;;;;;;;0.95;0.90;;;4.50;99.90;;;;;;4397830;32;20070;-77
2022/12/20 01:08:29;;;;;;;0.50;0.50;;;4.50;99.90;;;;;;4388980;32;20070;-77
2022/12/20 01:11:06;;;;;;;1.42;1.20;;;4.50;99.90;;;;;;4387543;32;20265;-75
2022/12/20 01:13:33;;;;;;;4.47;1.48;;;4.50;99.90;;;;;;4374954;32;20634;-75
2022/12/20 01:16:08;;;;;;;0.65;0.62;;;4.60;99.90;;;;;;4370635;32;20667;-75
2022/12/20 01:18:34;;;;;;;1.55;1.37;;;4.50;99.90;;;;;;4382721;32;20082;-76
2022/12/20 01:21:03;;;;;;;1.95;1.25;;;4.50;99.90;;;;;;4398661;32;20565;-76
2022/12/20 01:23:28;;;;;;;2.30;1.02;;;4.60;99.90;;;;;;4400066;32;20085;-76
2022/12/20 01:25:56;;;;;;;3.22;1.48;;;4.60;99.90;;;;;;4398427;32;20419;-76
2022/12/20 01:28:21;;;;;;;0.80;0.80;;;4.60;99.90;;;;;;4400164;32;20101;-76
2022/12/20 01:30:46;;;;;;;1.62;1.33;;;4.60;99.90;;;;;;4396515;32;20093;-76
2022/12/20 01:33:12;;;;;;;0.60;0.60;;;4.60;99.90;;;;;;4400427;32;20101;-76
2022/12/20 01:35:37;;;;;;;1.33;1.23;;;4.60;99.90;;;;;;4397122;32;20069;-76
2022/12/20 01:38:03;;;;;;;1.62;1.23;;;4.70;99.90;;;;;;4401229;32;20073;-76
2022/12/20 01:40:28;;;;;;;0.80;0.80;;;4.70;99.90;;;;;;4389860;32;20078;-76
2022/12/20 01:42:54;;;;;;;2.42;0.90;;;4.70;99.90;;;;;;4382175;32;20531;-75
2022/12/20 01:45:27;;;;;;;1.02;1.00;;;4.70;99.90;;;;;;4363948;32;20081;-75
2022/12/20 01:47:54;;;;;;;0.73;0.73;;;4.70;99.90;;;;;;4374867;32;20149;-76
2022/12/20 01:50:20;;;;;;;1.30;0.90;;;4.70;99.90;;;;;;4398478;32;20666;-76
2022/12/20 01:52:46;;;;;;;0.70;0.70;;;4.70;99.90;;;;;;4400152;32;20401;-76
2022/12/20 01:55:16;;;;;;;4.65;1.50;;;4.70;99.90;;;;;;4397278;32;20217;-76
2022/12/20 01:57:50;;;;;;;4.70;1.83;;;4.70;99.90;;;;;;4399188;32;20554;-76
2022/12/20 02:00:16;;;;;;;0.62;0.52;;;4.70;99.90;;;;;;4399419;32;20153;-77
2022/12/20 02:02:45;;;;;;;1.33;1.23;;;4.70;99.90;;;;;;4399579;32;20495;-77
2022/12/20 02:05:13;;;;;;;5.07;1.20;;;4.70;99.90;;;;;;4395545;32;20144;-77
2022/12/20 02:07:40;;;;;;;0.50;0.50;;;4.80;99.90;;;;;;4396127;32;20149;-77
2022/12/20 02:10:07;;;;;;;0.70;0.70;;;4.70;99.90;;;;;;4395336;32;20121;-76
2022/12/20 02:12:40;;;;;;;2.15;1.08;;;4.80;99.90;;;;;;4386002;32;20232;-74
2022/12/20 02:15:45;;;;;;;1.23;1.12;;;4.70;99.90;;;;;;4364725;32;20120;-74
2022/12/20 02:18:38;;;;;;;4.82;1.35;;;4.70;99.90;;;;;;4358785;32;20560;-73
2022/12/20 02:21:27;;;;;;;0.68;0.68;;;4.70;99.90;;;;;;4386939;32;20184;-76
2022/12/20 02:24:32;;;;;;;0.73;0.73;;;4.70;99.90;;;;;;4387764;32;20141;-73
2022/12/20 02:27:25;;;;;;;0.62;0.62;;;4.70;99.90;;;;;;4386209;32;20109;-74
2022/12/20 02:30:09;;;;;;;0.52;0.52;;;4.70;99.90;;;;;;4383545;32;20097;-75
2022/12/20 02:32:45;;;;;;;1.40;1.00;;;4.70;99.90;;;;;;4397360;32;20144;-74
2022/12/20 02:35:14;;;;;;;2.20;1.35;;;4.70;99.90;;;;;;4395134;32;20102;-73
2022/12/20 02:37:58;;;;;;;0.60;0.60;;;4.80;99.90;;;;;;4395932;32;20173;-74
2022/12/20 02:40:28;;;;;;;1.70;1.23;;;4.80;99.90;;;;;;4391126;32;20086;-76
2022/12/20 02:43:00;;;;;;;12.50;0.90;;;4.80;99.90;;;;;;4382934;32;20053;-75
2022/12/20 02:45:29;;;;;;;0.57;0.57;;;4.80;99.90;;;;;;4364606;32;20109;-74
2022/12/20 02:47:57;;;;;;;0.43;0.43;;;4.80;99.90;;;;;;4378746;32;20085;-74
2022/12/20 02:50:31;;;;;;;0.60;0.60;;;4.80;99.90;;;;;;4396518;32;20549;-73
2022/12/20 02:52:58;;;;;;;0.40;0.40;;;4.80;99.90;;;;;;4396221;32;20077;-74
2022/12/20 02:55:32;;;;;;;3.25;1.05;;;4.80;99.90;;;;;;4396231;32;20078;-75
2022/12/20 02:58:05;;;;;;;0.40;0.40;;;4.80;99.90;;;;;;4399295;32;20197;-74
2022/12/20 03:00:35;;;;;;;0.90;0.88;;;4.90;99.90;;;;;;4395490;32;20070;-73
2022/12/20 03:03:32;;;;;;;;;;;4.90;99.90;;;;;;4397943;32;20142;-75
2022/12/20 03:05:49;;;;;;;1.17;0.90;;;4.90;99.90;;;;;;4386358;32;20083;-73
2022/12/20 03:08:15;;;;;;;0.70;0.70;;;5.00;99.90;;;;;;4399951;32;20066;-74
2022/12/20 03:10:41;;;;;;;30.85;2.35;;;5.00;99.90;;;;;;4392033;32;20566;-75
2022/12/20 03:13:07;;;;;;;0.40;0.40;;;5.00;99.90;;;;;;4383690;32;20074;-74
2022/12/20 03:15:32;;;;;;;0.68;0.68;;;5.00;99.90;;;;;;4369240;32;20140;-75
2022/12/20 03:17:58;;;;;;;0.40;0.40;;;5.00;99.90;;;;;;4377786;32;20617;-73
2022/12/20 03:20:23;;;;;;;1.12;1.08;;;5.10;99.90;;;;;;4398438;32;20094;-74
2022/12/20 03:22:49;;;;;;;1.27;1.15;;;5.10;99.90;;;;;;4400937;32;20074;-74
2022/12/20 03:25:14;;;;;;;0.85;0.85;;;5.10;99.90;;;;;;4398056;32;20165;-73
2022/12/20 03:27:40;;;;;;;0.55;0.55;;;5.10;99.90;;;;;;4401183;32;20101;-74
2022/12/20 03:30:06;;;;;;;0.82;0.82;;;5.00;99.90;;;;;;4397104;32;20464;-74
2022/12/20 03:32:32;;;;;;;0.40;0.40;;;5.10;99.90;;;;;;4399459;32;20074;-74
2022/12/20 03:34:57;;;;;;;0.60;0.60;;;5.10;99.90;;;;;;4396979;32;20172;-75
2022/12/20 03:37:23;;;;;;;0.73;0.70;;;5.10;99.90;;;;;;4397933;32;21524;-74
2022/12/20 03:39:48;;;;;;;1.23;0.75;;;5.10;99.90;;;;;;4397538;32;20168;-75
2022/12/20 03:42:14;;;;;;;6.82;1.75;;;5.00;99.90;;;;;;4386068;32;20491;-76
2022/12/20 03:44:39;;;;;;;1.52;1.27;;;5.10;99.90;;;;;;4366137;32;20768;-74
2022/12/20 03:47:05;;;;;;;1.67;0.77;;;5.10;99.90;;;;;;4376289;32;20070;-75
2022/12/20 03:49:30;;;;;;;1.23;0.93;;;5.10;99.90;;;;;;4394442;32;20471;-74
2022/12/20 03:51:56;;;;;;;0.73;0.73;;;5.10;99.90;;;;;;4399921;32;20074;-74
2022/12/20 03:54:21;;;;;;;2.72;1.35;;;5.10;99.90;;;;;;4402197;32;20125;-73
2022/12/20 03:56:47;;;;;;;1.02;1.02;;;5.10;99.90;;;;;;4400792;32;20099;-75
2022/12/20 03:59:12;;;;;;;0.45;0.45;;;5.10;99.90;;;;;;4397351;32;20094;-74
2022/12/20 04:01:38;;;;;;;1.90;0.98;;;5.10;99.90;;;;;;4399843;32;20465;-74
2022/12/20 04:04:04;;;;;;;0.90;0.90;;;5.10;99.90;;;;;;4402061;32;20081;-74
2022/12/20 04:06:30;;;;;;;0.68;0.68;;;5.20;99.90;;;;;;4397638;32;20082;-73
2022/12/20 04:08:56;;;;;;;0.95;0.80;;;5.20;99.90;;;;;;4396797;32;20388;-74
2022/12/20 04:11:21;;;;;;;1.58;0.77;;;5.20;99.90;;;;;;4388315;32;20557;-75
2022/12/20 04:13:49;;;;;;;0.40;0.40;;;5.30;99.90;;;;;;4374833;32;20157;-76
2022/12/20 04:16:17;;;;;;;1.70;1.17;;;5.20;99.90;;;;;;4371180;32;20189;-76
2022/12/20 04:18:43;;;;;;;2.22;1.50;;;5.30;99.90;;;;;;4382907;32;20086;-74
2022/12/20 04:21:10;;;;;;;1.25;1.15;;;5.20;99.90;;;;;;4399826;32;20094;-75
2022/12/20 04:23:37;;;;;;;0.35;0.35;;;5.20;99.90;;;;;;4400534;32;20121;-73
2022/12/20 04:26:05;;;;;;;1.58;0.98;;;5.20;99.90;;;;;;4397241;32;20137;-74
2022/12/20 04:28:30;;;;;;;5.82;1.00;;;5.20;99.90;;;;;;4399759;32;20093;-74
2022/12/20 04:30:56;;;;;;;0.90;0.68;;;5.20;99.90;;;;;;4399438;32;20090;-73
2022/12/20 04:33:23;;;;;;;0.60;0.60;;;5.20;99.90;;;;;;4399657;32;20089;-74
2022/12/20 04:35:48;;;;;;;0.50;0.50;;;5.20;99.90;;;;;;4395190;32;20114;-74
2022/12/20 04:38:14;;;;;;;0.88;0.73;;;5.10;99.90;;;;;;4397799;32;20070;-73
2022/12/20 04:40:40;;;;;;;0.95;0.82;;;5.10;99.90;;;;;;4391045;32;20468;-75
2022/12/20 04:43:06;;;;;;;2.22;1.20;;;5.00;99.90;;;;;;4380837;32;20415;-76
2022/12/20 04:45:32;;;;;;;0.82;0.80;;;5.00;99.90;;;;;;4367244;32;20153;-76
2022/12/20 04:47:57;;;;;;;0.40;0.40;;;5.00;99.90;;;;;;4377912;32;20179;-73
2022/12/20 04:50:23;;;;;;;1.42;0.88;;;5.00;99.90;;;;;;4397860;32;20070;-76
2022/12/20 04:53:48;;;;;;;0.70;0.70;;;5.00;99.90;;;;;;4400014;32;20122;-74
2022/12/20 04:55:39;;;;;;;2.53;0.88;;;5.00;99.90;;;;;;4386049;32;20087;-75
2022/12/20 04:58:06;;;;;;;0.47;0.47;;;4.90;99.90;;;;;;4398442;32;20094;-74
2022/12/20 05:00:31;;;;;;;0.80;0.80;;;4.90;99.90;;;;;;4398475;32;20121;-74
2022/12/20 05:02:57;;;;;;;1.17;1.08;;;4.90;99.90;;;;;;4399738;32;20170;-75
2022/12/20 05:05:23;;;;;;;1.10;0.85;;;4.90;99.90;;;;;;4399252;32;20054;-75
2022/12/20 05:07:49;;;;;;;3.80;1.25;;;4.90;99.90;;;;;;4398882;32;20114;-75
2022/12/20 05:10:14;;;;;;;2.35;1.15;;;4.90;99.90;;;;;;4392584;32;20094;-74
2022/12/20 05:12:40;;;;;;;0.70;0.70;;;5.00;99.90;;;;;;4387120;32;20069;-76
2022/12/20 05:15:06;;;;;;;2.28;1.40;;;5.00;99.90;;;;;;4368204;32;20066;-74
2022/12/20 05:17:32;;;;;;;2.53;1.05;;;4.90;99.90;;;;;;4376849;32;20825;-75
2022/12/20 05:19:57;;;;;;;0.62;0.62;;;4.90;99.90;;;;;;4396679;32;20098;-74
2022/12/20 05:26:18;;;;;;;0.45;0.45;;;4.90;99.90;;;;;;4350576;32;20089;-76
2022/12/20 05:27:56;;;;;;;0.85;0.85;;;4.90;99.90;;;;;;4345447;32;20393;-76
2022/12/20 05:30:22;;;;;;;2.20;1.85;;;5.00;99.90;;;;;;4359845;32;20159;-75
2022/12/20 05:32:48;;;;;;;1.87;1.00;;;5.00;99.90;;;;;;4360642;32;20082;-75
2022/12/20 05:35:14;;;;;;;0.82;0.82;;;5.00;99.90;;;;;;4363186;32;20533;-77
2022/12/20 05:37:40;;;;;;;0.50;0.50;;;5.10;99.90;;;;;;4380721;32;20477;-76
2022/12/20 05:40:06;;;;;;;0.52;0.52;;;5.10;99.90;;;;;;4392525;32;21193;-77
2022/12/20 05:42:31;;;;;;;0.70;0.70;;;5.10;99.90;;;;;;4386303;32;20105;-76
2022/12/20 05:44:57;;;;;;;1.75;0.95;;;5.10;99.90;;;;;;4371717;32;20108;-74
2022/12/20 05:47:22;;;;;;;0.70;0.70;;;5.10;99.90;;;;;;4372372;32;20215;-74
2022/12/20 05:49:48;;;;;;;0.88;0.88;;;5.20;99.90;;;;;;4392420;32;20079;-73
2022/12/20 05:52:13;;;;;;;0.60;0.60;;;5.20;99.90;;;;;;4386331;32;20101;-75
2022/12/20 05:54:39;;;;;;;0.93;0.85;;;5.20;99.90;;;;;;4358204;32;20186;-76
2022/12/20 05:57:04;;;;;;;3.20;1.02;;;5.30;99.90;;;;;;4374494;32;20117;-76
2022/12/20 05:59:30;;;;;;;4.87;1.52;;;5.30;99.90;;;;;;4398506;32;20085;-75
2022/12/20 06:01:55;;;;;;;2.40;0.98;;;5.30;99.90;;;;;;4395264;32;20089;-75
2022/12/20 06:04:21;;;;;;;1.42;1.25;;;5.40;99.90;;;;;;4372467;32;20225;-75
2022/12/20 06:06:46;;;;;;;0.47;0.47;;;5.40;99.90;;;;;;4370131;32;20114;-76
2022/12/20 06:09:11;;;;;;;0.45;0.45;;;5.40;99.90;;;;;;4357801;32;20564;-76
2022/12/20 06:11:37;;;;;;;1.58;0.82;;;5.40;99.90;;;;;;4355545;32;20286;-75
2022/12/20 06:14:03;;;;;;;1.58;1.08;;;5.40;99.90;;;;;;4337133;32;20257;-75
2022/12/20 06:16:29;;;;;;;0.75;0.75;;;5.40;99.90;;;;;;4335928;32;20116;-75
2022/12/20 06:18:55;;;;;;;1.30;0.80;;;5.50;99.90;;;;;;4302313;32;20573;-75
2022/12/20 06:21:21;;;;;;;0.50;0.50;;;5.50;99.90;;;;;;4322182;32;20138;-75
2022/12/20 06:23:46;;;;;;;1.02;0.98;;;5.50;99.90;;;;;;4289493;32;20330;-75
2022/12/20 06:26:12;;;;;;;0.85;0.85;;;5.50;99.90;;;;;;4296990;32;20321;-77
2022/12/20 06:28:41;;;;;;;1.52;0.93;;;5.50;99.90;;;;;;4318472;32;20770;-75
2022/12/20 06:31:09;;;;;;;0.40;0.40;;;5.50;99.90;;;;;;4282141;32;20117;-76
2022/12/20 06:33:35;;;;;;;0.40;0.40;;;5.50;99.90;;;;;;4312151;32;20338;-79
2022/12/20 06:36:01;;;;;;;0.68;0.68;;;5.50;99.90;;;;;;4318123;32;20573;-77
2022/12/20 06:38:28;;;;;;;1.12;0.88;;;5.50;99.90;;;;;;4324388;32;20895;-76
2022/12/20 06:40:56;;;;;;;1.52;0.60;;;5.50;99.90;;;;;;4319098;32;20499;-77
2022/12/20 06:43:22;;;;;;;0.98;0.82;;;5.60;99.90;;;;;;4326083;32;20227;-76
2022/12/20 06:45:47;;;;;;;2.72;1.27;;;5.60;99.90;;;;;;4346213;32;20206;-77
2022/12/20 06:48:13;;;;;;;2.05;1.35;;;5.60;99.90;;;;;;4340485;32;20533;-77
2022/12/20 06:50:38;;;;;;;0.50;0.50;;;5.60;99.90;;;;;;4350794;32;20097;-77
2022/12/20 06:53:04;;;;;;;1.75;1.12;;;5.60;99.90;;;;;;4359367;32;20264;-77
2022/12/20 06:55:29;;;;;;;9.32;2.15;;;5.60;99.90;;;;;;4368482;32;20172;-76
2022/12/20 06:57:55;;;;;;;0.73;0.73;;;5.70;99.90;;;;;;4368511;32;20142;-77
2022/12/20 07:00:21;;;;;;;0.50;0.50;;;5.70;99.90;;;;;;4357653;32;20809;-77
2022/12/20 07:02:47;;;;;;;1.87;0.90;;;5.70;99.90;;;;;;4341142;32;20564;-78
2022/12/20 07:05:12;;;;;;;0.60;0.60;;;5.70;99.90;;;;;;4342748;32;21024;-76
2022/12/20 07:07:38;;;;;;;2.55;1.20;;;5.80;99.90;;;;;;4357294;32;21345;-75
2022/12/20 07:10:04;;;;;;;0.85;0.85;;;5.80;99.90;;;;;;4370219;32;20180;-76
2022/12/20 07:12:29;;;;;;;5.10;1.73;;;5.80;99.90;;;;;;4373815;32;20062;-76
2022/12/20 07:14:56;;;;;;;3.05;0.93;;;5.80;99.90;;;;;;4375901;32;20479;-77
2022/12/20 07:17:21;;;;;;;1.77;1.33;;;5.80;99.90;;;;;;4373787;32;20086;-76
2022/12/20 07:19:47;;;;;;;0.77;0.77;;;5.90;99.90;;;;;;4361358;32;20073;-77
2022/12/20 07:22:12;;;;;;;0.47;0.47;;;5.90;99.90;;;;;;4375989;32;20145;-76
2022/12/20 07:24:38;;;;;;;0.85;0.85;;;5.90;99.90;;;;;;4372553;32;20459;-76
2022/12/20 07:27:04;;;;;;;0.43;0.43;;;5.90;99.90;;;;;;4375915;32;20109;-75
2022/12/20 07:29:29;;;;;;;0.85;0.85;;;5.90;99.90;;;;;;4363936;32;20438;-76
2022/12/20 07:31:55;;;;;;;0.75;0.75;;;5.90;99.90;;;;;;4339583;32;143179;-77
2022/12/20 07:34:20;;;;;;;0.65;0.65;;;5.90;99.90;;;;;;4342057;32;21259;-76
2022/12/20 07:36:46;;;;;;;0.70;0.70;;;5.90;99.90;;;;;;4351681;32;20546;-76
2022/12/20 07:39:12;;;;;;;0.90;0.90;;;5.90;99.90;;;;;;4372252;32;20692;-76
2022/12/20 07:41:37;;;;;;;3.92;1.48;;;5.90;99.90;;;;;;4369312;32;20531;-76
2022/12/20 07:44:03;;;;;;;0.95;0.95;;;5.90;99.90;;;;;;4372574;32;20450;-76
2022/12/20 07:46:29;;;;;;;2.45;1.20;;;5.90;99.90;;;;;;4373498;32;20105;-77
2022/12/20 07:48:54;;;;;;;0.85;0.85;;;5.90;99.90;;;;;;4361541;32;20148;-78
2022/12/20 07:51:24;;;;;;;1.95;1.30;;;6.00;99.90;;;;;;4362436;32;20089;-78
2022/12/20 07:53:56;;;;;;;0.45;0.45;;;5.90;99.90;;;;;;4370315;32;20592;-78
2022/12/20 07:56:22;;;;;;;0.80;0.80;;;5.90;99.90;;;;;;4376569;32;20094;-78
2022/12/20 07:58:50;;;;;;;0.55;0.55;;;5.90;99.90;;;;;;4369410;32;21815;-76
2022/12/20 08:01:15;;;;;;;2.08;0.93;;;5.90;99.90;;;;;;4352209;32;20193;-76
2022/12/20 08:03:45;;;;;;;1.40;0.60;;;5.90;99.90;;;;;;4342727;32;20178;-77
2022/12/20 08:06:12;;;;;;;0.82;0.70;;;5.90;99.90;;;;;;4351420;32;20086;-77
2022/12/20 08:08:43;;;;;;;0.80;0.80;;;5.90;99.90;;;;;;4370508;32;20102;-76
2022/12/20 08:11:09;;;;;;;0.62;0.62;;;5.90;99.90;;;;;;4368172;32;20772;-77
2022/12/20 08:13:35;;;;;;;1.65;1.40;;;5.90;99.90;;;;;;4372373;32;20288;-76
2022/12/20 08:16:01;;;;;;;0.62;0.62;;;5.90;99.90;;;;;;4370247;32;20510;-77
2022/12/20 08:18:26;;;;;;;0.57;0.52;;;5.90;99.90;;;;;;4365356;32;20405;-77
2022/12/20 08:20:52;;;;;;;1.58;1.00;;;5.90;99.90;;;;;;4358146;32;20345;-77
2022/12/20 08:23:18;;;;;;;0.85;0.65;;;6.00;99.90;;;;;;4372588;32;20077;-77
2022/12/20 08:25:44;;;;;;;5.70;1.05;;;6.00;99.90;;;;;;4370201;32;20745;-76
2022/12/20 08:28:09;;;;;;;0.90;0.90;;;6.00;99.90;;;;;;4352148;32;20228;-77
2022/12/20 08:30:35;;;;;;;4.60;1.10;;;6.00;99.90;;;;;;4336606;32;20289;-78
2022/12/20 08:33:01;;;;;;;0.80;0.80;;;6.00;99.90;;;;;;4328452;32;21237;-77
2022/12/20 08:35:27;;;;;;;1.35;1.25;;;6.00;99.90;;;;;;4340770;32;20491;-78
2022/12/20 08:37:55;;;;;;;1.00;1.00;;;6.00;99.90;;;;;;4360880;32;20905;-77
2022/12/20 08:40:21;;;;;;;5.20;1.50;;;6.10;99.90;;;;;;4365510;32;20673;-78
2022/12/20 08:42:46;;;;;;;1.20;0.80;;;6.10;99.90;;;;;;4374909;32;20081;-78
2022/12/20 08:45:12;;;;;;;0.80;0.80;;;6.10;99.90;;;;;;4373975;32;20561;-77
2022/12/20 08:47:38;;;;;;;1.08;0.60;;;6.10;99.90;;;;;;4364195;32;20111;-79
2022/12/20 08:50:04;;;;;;;1.33;1.23;;;6.20;99.90;;;;;;4351376;32;20450;-79
2022/12/20 08:52:29;;;;;;;1.02;0.65;;;6.20;99.90;;;;;;4352177;32;20265;-78
2022/12/20 08:54:55;;;;;;;4.90;1.77;;;6.20;99.90;;;;;;4370492;32;20106;-79
2022/12/20 08:57:26;;;;;;;1.67;1.20;;;6.20;99.90;;;;;;4366824;32;20074;-78
2022/12/20 08:59:51;;;;;;;;;;;6.30;99.90;;;;;;4355553;32;20621;-78
2022/12/20 09:02:17;;;;;;;1.67;0.98;;;6.30;99.90;;;;;;4356935;32;19973;-79
2022/12/20 09:04:43;;;;;;;0.70;0.70;;;6.30;99.90;;;;;;4340929;32;20191;-78
2022/12/20 09:07:09;;;;;;;1.30;1.20;;;6.30;99.90;;;;;;4363196;32;20183;-77
2022/12/20 09:09:35;;;;;;;0.95;0.80;;;6.40;99.90;;;;;;4376114;32;20086;-78
2022/12/20 09:12:00;;;;;;;2.37;1.30;;;6.40;99.90;;;;;;4377169;32;20751;-77
2022/12/20 09:14:26;;;;;;;1.15;1.08;;;6.40;99.90;;;;;;4373880;32;20169;-77
2022/12/20 09:16:51;;;;;;;0.50;0.50;;;6.50;99.90;;;;;;4379647;32;20185;-76
2022/12/20 09:19:17;;;;;;;0.57;0.57;;;6.50;99.90;;;;;;4356818;32;20213;-77
2022/12/20 09:21:42;;;;;;;1.05;0.55;;;6.50;99.90;;;;;;4371033;32;20101;-76
2022/12/20 09:24:09;;;;;;;1.12;1.02;;;6.50;99.90;;;;;;4363820;32;20102;-77
2022/12/20 09:26:35;;;;;;;0.50;0.50;;;6.60;99.90;;;;;;4366462;32;20094;-77
2022/12/20 09:29:01;;;;;;;1.60;1.08;;;6.60;99.90;;;;;;4355507;32;20180;-80
2022/12/20 09:31:27;;;;;;;1.85;0.98;;;6.70;99.90;;;;;;4358149;32;20286;-77
2022/12/20 09:33:55;;;;;;;1.33;0.85;;;6.70;99.90;;;;;;4337434;32;20209;-77
2022/12/20 09:36:22;;;;;;;3.17;1.23;;;6.80;99.90;;;;;;4355457;32;20187;-78
2022/12/20 09:38:48;;;;;;;0.40;0.40;;;6.80;99.90;;;;;;4375082;32;20616;-77
2022/12/20 09:41:24;;;;;;;3.72;0.80;;;6.80;99.90;;;;;;4369924;32;20205;-77
2022/12/20 09:43:51;;;;;;;2.37;1.15;;;6.90;99.90;;;;;;4367311;32;20117;-77
2022/12/20 09:46:17;;;;;;;1.77;0.65;;;6.90;99.90;;;;;;4372915;32;20480;-77
2022/12/20 09:48:44;;;;;;;5.90;0.90;;;7.00;99.90;;;;;;4359732;32;20114;-77
2022/12/20 09:51:25;;;;;;;3.50;1.12;;;7.10;99.90;;;;;;4363562;32;20106;-77
2022/12/20 09:54:12;;;;;;;36.75;2.60;;;7.10;99.90;;;;;;4365032;32;20074;-77
2022/12/20 09:56:45;;;;;;;1.00;1.00;;;7.20;99.90;;;;;;4364802;32;20254;-76
2022/12/20 09:59:16;;;;;;;2.20;1.00;;;7.30;99.90;;;;;;4360761;32;20086;-77
2022/12/20 10:01:43;;;;;;;;;;;7.40;99.90;;;;;;4350372;32;21093;-77
2022/12/20 10:04:21;;;;;;;1.95;1.27;;;7.50;99.90;;;;;;4366054;32;20671;-77
2022/12/20 10:07:26;;;;;;;0.70;0.70;;;7.50;99.90;;;;;;4364675;32;20124;-77
2022/12/20 10:10:13;;;;;;;0.73;0.73;;;7.50;99.90;;;;;;4358928;32;20857;-77
2022/12/20 10:13:04;;;;;;;0.68;0.68;;;7.50;99.90;;;;;;4349406;32;21324;-76
2022/12/20 10:15:36;;;;;;;1.30;0.75;;;7.50;99.90;;;;;;4361648;32;20126;-77
2022/12/20 10:18:20;;;;;;;0.52;0.52;;;7.50;99.90;;;;;;4365565;32;20248;-77
2022/12/20 10:20:59;;;;;;;0.82;0.82;;;7.50;99.90;;;;;;4349817;32;20093;-76
2022/12/20 10:23:30;;;;;;;1.40;0.77;;;7.40;99.90;;;;;;4348549;32;21108;-81
2022/12/20 10:25:57;;;;;;;4.60;1.70;;;7.50;99.90;;;;;;4349660;32;20808;-79
2022/12/20 10:28:28;;;;;;;0.43;0.43;;;7.50;99.90;;;;;;4354129;32;20338;-80
2022/12/20 10:30:58;;;;;;;1.02;0.95;;;7.50;99.90;;;;;;4345522;32;20094;-80
2022/12/20 10:33:26;;;;;;;0.70;0.70;;;7.50;99.90;;;;;;4351765;32;20089;-77
2022/12/20 10:35:52;;;;;;;0.50;0.50;;;7.60;99.90;;;;;;4353569;32;20122;-79
2022/12/20 10:38:19;;;;;;;1.00;0.98;;;7.60;99.90;;;;;;4367989;32;20313;-77
2022/12/20 10:40:59;;;;;;;4.70;2.00;;;7.70;99.90;;;;;;4363859;32;20920;-76
2022/12/20 10:43:25;;;;;;;0.95;0.82;;;7.70;99.90;;;;;;4367804;32;20098;-77
2022/12/20 10:45:58;;;;;;;0.68;0.68;;;7.90;99.90;;;;;;4368108;32;20498;-78
2022/12/20 10:48:34;;;;;;;1.60;0.95;;;7.90;99.90;;;;;;4363503;32;20082;-78
2022/12/20 10:51:12;;;;;;;1.25;0.88;;;8.00;99.90;;;;;;4355733;32;20213;-78
2022/12/20 10:54:00;;;;;;;0.93;0.93;;;8.00;99.90;;;;;;4363368;32;20063;-78
2022/12/20 10:56:29;;;;;;;0.70;0.70;;;8.10;99.90;;;;;;4358197;32;20093;-78
2022/12/20 10:59:01;;;;;;;0.68;0.68;;;8.10;99.90;;;;;;4364277;32;20283;-77
2022/12/20 11:01:30;;;;;;;0.40;0.40;;;8.10;99.90;;;;;;4346960;32;20762;-79
2022/12/20 11:04:01;;;;;;;1.20;1.15;;;8.20;99.90;;;;;;4348740;32;21074;-77
2022/12/20 11:06:39;;;;;;;1.48;1.02;;;8.20;99.90;;;;;;4356606;32;20105;-76
2022/12/20 11:09:26;;;;;;;0.75;0.75;;;8.20;99.90;;;;;;4353451;32;20574;-78
2022/12/20 11:12:06;;;;;;;1.85;1.20;;;8.20;99.90;;;;;;4369151;32;20669;-78
2022/12/20 11:14:35;;;;;;;1.83;0.90;;;8.20;99.90;;;;;;4378013;32;20117;-77
2022/12/20 11:17:16;;;;;;;9.07;1.27;;;8.20;99.90;;;;;;4365746;32;20672;-77
2022/12/20 11:19:59;;;;;;;0.40;0.40;;;8.20;99.90;;;;;;4347450;32;20486;-77
2022/12/20 11:22:49;;;;;;;0.60;0.60;;;8.20;99.90;;;;;;4353040;32;20197;-78
2022/12/20 11:25:43;;;;;;;1.08;0.90;;;8.30;99.90;;;;;;4346344;32;20189;-78
2022/12/20 11:28:31;;;;;;;0.77;0.77;;;8.30;99.90;;;;;;4349502;32;20291;-78
2022/12/20 11:31:10;;;;;;;1.85;0.93;;;8.30;99.90;;;;;;4350344;32;20576;-78
2022/12/20 11:34:02;;;;;;;0.75;0.75;;;8.30;99.90;;;;;;4345553;32;20415;-78
2022/12/20 11:36:40;;;;;;;0.70;0.70;;;8.20;99.90;;;;;;4353818;32;20089;-77
2022/12/20 11:39:25;;;;;;;0.73;0.70;;;8.30;99.90;;;;;;4376545;32;20118;-77
2022/12/20 11:42:32;;;;;;;1.35;0.82;;;8.30;99.90;;;;;;4370344;32;20392;-76
2022/12/20 11:45:24;;;;;;;0.62;0.62;;;8.40;99.90;;;;;;4348087;32;20603;-78
2022/12/20 11:48:19;;;;;;;0.50;0.50;;;8.40;99.90;;;;;;4357607;32;20197;-78
2022/12/20 11:50:54;;;;;;;0.70;0.70;;;8.40;99.90;;;;;;4348705;32;20515;-77
2022/12/20 11:53:36;;;;;;;0.70;0.47;;;8.40;99.90;;;;;;4347490;32;20105;-79
2022/12/20 11:56:12;;;;;;;1.10;1.00;;;8.30;99.90;;;;;;4355735;32;20105;-76
2022/12/20 11:58:55;;;;;;;0.65;0.65;;;8.40;99.90;;;;;;4356241;32;20153;-78
2022/12/20 12:01:34;;;;;;;0.80;0.77;;;8.40;99.90;;;;;;4363831;32;20102;-78
2022/12/20 12:04:24;;;;;;;1.30;1.20;;;8.40;99.90;;;;;;4335032;32;21058;-76
2022/12/20 12:07:14;;;;;;;3.50;0.77;;;8.40;99.90;;;;;;4354786;32;20090;-79
2022/12/20 12:10:18;;;;;;;1.53;0.90;;;8.50;99.90;;;;;;4370297;32;20439;-77
2022/12/20 12:13:05;;;;;;;4.90;1.67;;;8.50;99.90;;;;;;4363819;32;20301;-77
2022/12/20 12:15:45;;;;;;;3.10;1.27;;;8.50;99.90;;;;;;4370775;32;21546;-78
2022/12/20 12:18:23;;;;;;;1.90;1.17;;;8.60;99.90;;;;;;4372169;32;20102;-78
2022/12/20 12:20:53;;;;;;;0.85;0.68;;;8.60;99.90;;;;;;4354118;32;20719;-79
2022/12/20 12:23:22;;;;;;;1.83;1.00;;;8.60;99.90;;;;;;4342841;32;20168;-80
2022/12/20 12:25:48;;;;;;;0.87;0.80;;;8.60;99.90;;;;;;4363250;32;20243;-78
2022/12/20 12:28:17;;;;;;;2.70;1.15;;;8.60;99.90;;;;;;4363691;32;20257;-77
2022/12/20 12:30:47;;;;;;;0.77;0.77;;;8.60;99.90;;;;;;4364979;32;20398;-78
2022/12/20 12:33:21;;;;;;;2.83;1.30;;;8.70;99.90;;;;;;4343586;32;20109;-78
2022/12/20 12:36:15;;;;;;;0.90;0.90;;;8.70;99.90;;;;;;4352430;32;20301;-77
2022/12/20 12:38:59;;;;;;;3.40;0.77;;;8.70;99.90;;;;;;4353368;32;20819;-78
2022/12/20 12:41:54;;;;;;;1.98;0.88;;;8.70;99.90;;;;;;4364554;32;20082;-77
2022/12/20 12:44:28;;;;;;;0.60;0.60;;;8.70;99.90;;;;;;4359869;32;20118;-78
2022/12/20 12:47:00;;;;;;;1.00;0.75;;;8.70;99.90;;;;;;4358942;32;20153;-76
2022/12/20 12:49:29;;;;;;;0.37;0.37;;;8.70;99.90;;;;;;4362486;32;21112;-77
2022/12/20 12:51:58;;;;;;;0.62;0.62;;;8.70;99.90;;;;;;4368937;32;20352;-76
2022/12/20 12:54:28;;;;;;;1.33;1.23;;;8.60;99.90;;;;;;4349197;32;20704;-77
2022/12/20 12:57:13;;;;;;;1.73;1.62;;;8.70;99.90;;;;;;4366465;32;20085;-76
2022/12/20 12:59:45;;;;;;;1.17;0.82;;;8.70;99.90;;;;;;4363639;32;21169;-76
2022/12/20 13:02:14;;;;;;;0.57;0.57;;;8.70;99.90;;;;;;4367122;32;20300;-77
2022/12/20 13:05:14;;;;;;;9.23;0.77;;;8.70;99.90;;;;;;4357750;32;20113;-76
2022/12/20 13:07:42;;;;;;;2.12;1.40;;;8.70;99.90;;;;;;4380067;32;20082;-77
2022/12/20 13:10:17;;;;;;;1.70;1.60;;;8.60;99.90;;;;;;4385540;32;20069;-76
2022/12/20 13:12:56;;;;;;;1.75;1.12;;;8.60;99.90;;;;;;4379754;32;20082;-76
2022/12/20 13:15:24;;;;;;;1.92;1.12;;;8.50;99.90;;;;;;4381547;32;20086;-75
2022/12/20 13:17:53;;;;;;;0.65;0.60;;;8.50;99.90;;;;;;4375784;32;20441;-77